Time;durP1;ratioP1;P1;durP2;ratioP2;P2;SDS_P1;SDS_P2;PMS_P1;PMS_P2;Temp;Humidity;BMP_temperature;BMP_pressure;BME280_temperature;BME280_humidity;BME280_pressure;Samples;Min_cycle;Max_cycle;Signal;HPM_P1;HPM_P2
2022/05/19 00:00:00;;;;;;;18.40;5.20;;;;;;;9.04;52.02;100982.31;4242148;28;20239;-71
2022/05/19 00:02:27;;;;;;;18.37;4.80;;;;;;;9.08;51.20;100991.69;4220562;28;25360;-73
2022/05/19 00:04:53;;;;;;;12.07;4.77;;;;;;;9.03;51.15;100984.09;4234247;28;20282;-72
2022/05/19 00:07:22;;;;;;;18.47;5.27;;;;;;;9.02;52.19;100985.06;4239254;28;20258;-71
2022/05/19 00:09:51;;;;;;;17.47;4.70;;;;;;;8.90;52.61;100987.81;4241331;28;20231;-73
2022/05/19 00:12:21;;;;;;;13.10;4.93;;;;;;;8.91;52.78;100978.91;4237204;28;21751;-72
2022/05/19 00:14:48;;;;;;;14.40;4.90;;;;;;;8.96;52.57;100982.88;4255607;28;20242;-73
2022/05/19 00:17:15;;;;;;;13.70;4.40;;;;;;;8.99;51.12;100981.78;4240970;28;20289;-72
2022/05/19 00:19:42;;;;;;;17.37;4.97;;;;;;;8.94;51.25;100984.81;4237673;28;21249;-73
2022/05/19 00:22:08;;;;;;;20.50;5.23;;;;;;;8.86;52.21;100982.75;4237503;28;20356;-73
2022/05/19 00:24:35;;;;;;;14.80;4.23;;;;;;;8.86;51.92;100982.75;4235387;28;20296;-74
2022/05/19 00:27:02;;;;;;;15.97;4.43;;;;;;;8.94;51.01;100983.97;4238893;28;20239;-71
2022/05/19 00:29:28;;;;;;;12.37;4.20;;;;;;;8.85;51.44;100978.44;4231270;28;20245;-73
2022/05/19 00:31:55;;;;;;;14.53;4.23;;;;;;;8.80;51.15;100975.31;4236168;28;20290;-72
2022/05/19 00:34:22;;;;;;;14.60;4.23;;;;;;;8.79;51.48;100970.94;4230471;28;22039;-73
2022/05/19 00:37:00;;;;;;;18.47;4.37;;;;;;;8.77;51.31;100977.34;4225135;28;25480;-71
2022/05/19 00:39:27;;;;;;;13.10;4.07;;;;;;;8.74;51.61;100973.13;4246985;28;20235;-71
2022/05/19 00:44:41;;;;;;;22.27;4.60;;;;;;;8.66;53.26;100972.84;4232599;28;25239;-73
2022/05/19 00:47:13;;;;;;;28.63;5.17;;;;;;;8.55;53.45;100972.88;4238817;28;20235;-71
2022/05/19 00:49:43;;;;;;;16.30;4.70;;;;;;;8.54;54.46;100971.16;4236456;28;20313;-72
2022/05/19 00:52:20;;;;;;;20.90;4.33;;;;;;;8.51;53.93;100968.75;4245642;28;20291;-73
2022/05/19 00:54:51;;;;;;;15.20;4.10;;;;;;;8.49;53.70;100968.88;4237783;28;25393;-71
2022/05/19 00:57:23;;;;;;;10.57;3.83;;;;;;;8.44;53.94;100976.34;4242554;28;20228;-71
2022/05/19 00:59:57;;;;;;;11.70;3.60;;;;;;;8.59;52.60;100980.47;4238080;28;22161;-72
2022/05/19 01:02:26;;;;;;;10.13;4.00;;;;;;;8.53;52.47;100974.78;4241942;28;20229;-72
2022/05/19 01:05:00;;;;;;;12.37;3.60;;;;;;;8.57;52.80;100976.22;4251303;28;20231;-72
2022/05/19 01:07:33;;;;;;;19.17;3.57;;;;;;;8.59;51.57;100976.94;4236614;28;20317;-72
2022/05/19 01:09:59;;;;;;;9.23;4.30;;;;;;;8.53;51.12;100980.94;4224313;28;20235;-71
2022/05/19 01:12:28;;;;;;;9.63;3.23;;;;;;;8.53;50.49;100975.63;4241811;28;20239;-71
2022/05/19 01:14:54;;;;;;;9.10;3.20;;;;;;;8.59;49.82;100974.31;4239705;28;20302;-73
2022/05/19 01:17:26;;;;;;;10.60;3.60;;;;;;;8.58;48.96;100984.06;4240294;28;21449;-72
2022/05/19 01:19:57;;;;;;;8.63;3.10;;;;;;;8.64;48.97;100988.06;4254044;28;20241;-72
2022/05/19 01:22:56;;;;;;;9.20;3.33;;;;;;;8.71;48.49;100991.94;4241307;28;21669;-73
2022/05/19 01:25:29;;;;;;;10.00;3.30;;;;;;;8.61;49.26;100988.28;4243009;28;20338;-73
2022/05/19 01:27:57;;;;;;;18.77;4.30;;;;;;;8.61;50.31;100991.78;4246657;28;21213;-72
2022/05/19 01:30:23;;;;;;;14.50;3.97;;;;;;;8.59;51.07;100982.25;4231930;28;21145;-73
2022/05/19 01:32:56;;;;;;;13.83;3.50;;;;;;;8.51;51.00;100988.16;4239706;28;20323;-71
2022/05/19 01:35:23;;;;;;;18.47;3.70;;;;;;;8.52;51.77;100983.69;4228648;28;20508;-75
2022/05/19 01:37:50;;;;;;;13.10;3.93;;;;;;;8.38;52.90;100974.13;4240859;28;23263;-72
2022/05/19 01:40:43;;;;;;;11.80;4.00;;;;;;;8.36;52.43;100976.91;4264534;28;20253;-74
2022/05/19 01:43:19;;;;;;;13.67;3.77;;;;;;;8.35;52.16;100977.84;4230138;28;20232;-74
2022/05/19 01:46:14;;;;;;;9.90;3.30;;;;;;;8.30;52.91;100976.53;4260968;28;20241;-73
2022/05/19 01:48:48;;;;;;;9.33;3.67;;;;;;;8.31;52.33;100973.75;4247124;28;20250;-74
2022/05/19 01:51:31;;;;;;;8.83;3.83;;;;;;;8.32;51.64;100978.09;4247786;28;20230;-74
2022/05/19 01:54:18;;;;;;;10.23;3.93;;;;;;;8.38;51.27;100977.63;4236478;28;21234;-73
2022/05/19 01:57:12;;;;;;;12.17;3.80;;;;;;;8.47;50.27;100980.56;4240190;28;25626;-74
2022/05/19 02:00:05;;;;;;;9.57;3.40;;;;;;;8.35;51.07;100977.00;4254289;28;20242;-73
2022/05/19 02:02:43;;;;;;;10.03;3.27;;;;;;;8.31;51.09;100991.47;4246658;28;20234;-72
2022/05/19 02:05:18;;;;;;;10.73;4.20;;;;;;;8.22;51.16;100988.56;4227554;28;22694;-73
2022/05/19 02:07:48;;;;;;;13.00;3.43;;;;;;;8.24;51.22;100985.75;4236198;28;20235;-73
2022/05/19 02:10:18;;;;;;;20.00;4.00;;;;;;;8.19;51.77;100982.63;4249358;28;20249;-73
2022/05/19 02:12:46;;;;;;;13.17;3.50;;;;;;;8.19;50.03;100987.94;4249188;28;20302;-73
2022/05/19 02:15:15;;;;;;;11.93;4.03;;;;;;;8.21;50.76;100983.34;4237594;28;20231;-74
2022/05/19 02:17:43;;;;;;;12.47;4.07;;;;;;;8.25;50.69;100982.19;4234645;28;22038;-73
2022/05/19 02:20:12;;;;;;;11.23;3.73;;;;;;;8.27;50.55;100979.41;4236249;28;20550;-73
2022/05/19 02:22:42;;;;;;;17.47;3.67;;;;;;;8.37;49.69;100978.56;4255829;28;21166;-74
2022/05/19 02:25:28;;;;;;;9.97;3.77;;;;;;;8.33;50.10;100985.06;4228963;28;20235;-73
2022/05/19 02:28:03;;;;;;;8.37;3.43;;;;;;;8.32;49.65;100971.94;4240224;28;22830;-74
2022/05/19 02:30:35;;;;;;;9.53;4.00;;;;;;;8.37;49.65;100975.09;4240683;28;20244;-73
2022/05/19 02:33:02;;;;;;;10.07;3.77;;;;;;;8.31;49.73;100973.75;4254954;28;20313;-73
2022/05/19 02:35:28;;;;;;;12.50;3.60;;;;;;;8.31;49.87;100973.75;4232904;28;20301;-72
2022/05/19 02:37:56;;;;;;;9.80;3.47;;;;;;;8.34;49.92;100976.16;4218477;28;20227;-74
2022/05/19 02:40:25;;;;;;;17.83;4.13;;;;;;;8.38;49.60;100979.41;4231246;28;20235;-73
2022/05/19 02:42:52;;;;;;;10.87;4.33;;;;;;;8.48;49.77;100972.50;4240223;28;20242;-73
2022/05/19 02:45:20;;;;;;;23.90;7.83;;;;;;;8.48;49.32;100966.34;4246030;28;20405;-74
2022/05/19 02:47:47;;;;;;;27.30;8.50;;;;;;;8.48;48.71;100971.66;4241927;28;20411;-73
2022/05/19 02:50:15;;;;;;;25.90;7.50;;;;;;;8.47;49.16;100969.94;4290381;28;20234;-73
2022/05/19 02:52:42;;;;;;;19.40;6.77;;;;;;;8.49;48.29;100960.06;4275904;28;20238;-74
2022/05/19 02:55:10;;;;;;;17.07;6.13;;;;;;;8.53;49.42;100965.03;4285690;28;21760;-74
2022/05/19 02:57:36;;;;;;;21.70;6.17;;;;;;;8.52;48.42;100965.13;4291644;28;20535;-72
2022/05/19 03:00:06;;;;;;;17.60;5.73;;;;;;;8.60;48.28;100960.09;4263362;28;20251;-71
2022/05/19 03:02:33;;;;;;;15.73;5.67;;;;;;;8.58;48.37;100965.50;4281347;28;20227;-72
2022/05/19 03:05:00;;;;;;;12.30;5.30;;;;;;;8.62;48.00;100974.09;4261100;28;21583;-72
2022/05/19 03:07:27;;;;;;;13.13;5.50;;;;;;;8.57;48.83;100966.47;4249801;28;22033;-73
2022/05/19 03:09:53;;;;;;;14.77;5.57;;;;;;;8.56;50.01;100970.09;4244673;28;21487;-72
2022/05/19 03:12:20;;;;;;;13.23;5.00;;;;;;;8.57;50.07;100970.91;4262601;28;22051;-74
2022/05/19 03:14:47;;;;;;;13.13;4.73;;;;;;;8.69;47.58;100970.00;4261211;28;20249;-73
2022/05/19 03:17:14;;;;;;;11.83;4.60;;;;;;;8.78;47.41;100963.09;4250782;28;21255;-75
2022/05/19 03:19:40;;;;;;;11.10;3.97;;;;;;;8.83;47.23;100972.41;4237538;28;21003;-72
2022/05/19 03:22:07;;;;;;;13.23;4.53;;;;;;;8.86;46.82;100976.63;4264754;28;20230;-73
2022/05/19 03:24:34;;;;;;;7.93;3.60;;;;;;;8.82;46.63;100969.84;4254544;28;20226;-74
2022/05/19 03:27:00;;;;;;;12.33;4.03;;;;;;;8.94;46.05;100978.66;4252781;28;20223;-74
2022/05/19 03:29:27;;;;;;;17.97;4.10;;;;;;;8.96;46.51;100977.56;4297145;28;20226;-73
2022/05/19 03:31:54;;;;;;;9.37;3.50;;;;;;;9.08;45.49;100973.09;4257477;28;20237;-73
2022/05/19 03:34:21;;;;;;;8.60;3.50;;;;;;;9.17;45.65;100975.03;4245207;28;20460;-73
2022/05/19 03:36:49;;;;;;;10.37;3.70;;;;;;;9.18;44.77;100976.72;4248002;28;20243;-74
2022/05/19 03:39:16;;;;;;;13.67;3.43;;;;;;;9.30;44.71;100975.75;4255544;28;20445;-73
2022/05/19 03:41:42;;;;;;;9.97;2.93;;;;;;;9.38;44.08;100984.91;4249862;28;20250;-73
2022/05/19 03:44:09;;;;;;;11.43;2.90;;;;;;;9.47;43.05;100979.69;4238902;28;20911;-71
2022/05/19 03:46:36;;;;;;;15.87;3.20;;;;;;;9.57;43.15;100982.44;4237106;28;20227;-73
2022/05/19 03:49:03;;;;;;;10.10;2.60;;;;;;;9.63;42.36;100976.63;4236534;28;22114;-72
2022/05/19 03:51:32;;;;;;;10.60;2.93;;;;;;;9.78;41.85;100973.69;4241771;28;20265;-72
2022/05/19 03:53:59;;;;;;;8.43;3.00;;;;;;;9.93;41.56;100972.41;4239526;28;20240;-73
2022/05/19 03:56:26;;;;;;;11.27;2.83;;;;;;;10.00;41.43;100983.38;4242391;28;22386;-72
2022/05/19 03:58:53;;;;;;;8.57;2.73;;;;;;;10.05;41.01;100979.38;4238186;28;20236;-72
2022/05/19 04:01:20;;;;;;;9.60;2.83;;;;;;;10.19;40.57;100988.84;4239132;28;20234;-74
2022/05/19 04:03:47;;;;;;;7.73;2.83;;;;;;;10.30;40.50;100985.31;4235845;28;20231;-73
2022/05/19 04:06:14;;;;;;;4.67;2.53;;;;;;;10.40;39.99;100990.72;4244375;28;21419;-73
2022/05/19 04:08:40;;;;;;;10.67;2.70;;;;;;;10.30;39.52;100985.31;4247012;28;21850;-74
2022/05/19 04:11:07;;;;;;;8.90;2.83;;;;;;;10.52;39.39;100982.50;4249384;28;20238;-73
2022/05/19 04:13:34;;;;;;;9.07;3.07;;;;;;;10.62;39.14;100985.22;4234618;28;21027;-72
2022/05/19 04:16:00;;;;;;;11.87;2.60;;;;;;;10.67;38.92;100988.31;4245234;28;21634;-73
2022/05/19 04:18:33;;;;;;;7.03;2.70;;;;;;;10.65;38.87;100984.97;4243381;28;21068;-72
2022/05/19 04:21:00;;;;;;;7.10;2.50;;;;;;;10.84;38.90;100991.34;4244517;28;20367;-72
2022/05/19 04:23:27;;;;;;;12.10;2.40;;;;;;;10.88;38.28;100979.47;4238068;28;21775;-73
2022/05/19 04:25:54;;;;;;;9.10;2.97;;;;;;;10.97;38.05;100987.50;4245224;28;20296;-72
2022/05/19 04:28:22;;;;;;;10.87;2.97;;;;;;;11.05;38.43;100983.31;4236001;28;20309;-73
2022/05/19 04:30:48;;;;;;;19.57;2.87;;;;;;;11.19;38.00;100986.47;4238611;28;22372;-72
2022/05/19 04:33:15;;;;;;;9.70;2.90;;;;;;;11.32;37.94;100990.69;4261965;28;20807;-72
2022/05/19 04:35:42;;;;;;;16.17;3.30;;;;;;;11.39;37.92;100986.50;4240881;28;20238;-72
2022/05/19 04:38:12;;;;;;;10.30;3.13;;;;;;;11.57;37.75;100986.69;4265333;28;20239;-74
2022/05/19 04:40:42;;;;;;;11.93;2.83;;;;;;;11.73;37.60;100989.66;4228460;28;20302;-74
2022/05/19 04:43:11;;;;;;;11.50;3.00;;;;;;;11.86;37.17;100985.88;4251058;28;20234;-72
2022/05/19 04:45:38;;;;;;;9.03;3.03;;;;;;;11.96;37.32;100981.41;4257745;28;20234;-72
2022/05/19 04:48:05;;;;;;;9.53;2.53;;;;;;;12.04;36.86;100986.91;4233557;28;20238;-71
2022/05/19 04:50:32;;;;;;;7.83;2.60;;;;;;;12.14;37.14;100985.06;4246550;28;20243;-74
2022/05/19 04:52:59;;;;;;;8.77;2.80;;;;;;;12.29;36.77;100984.63;4234958;28;20231;-73
2022/05/19 04:55:27;;;;;;;8.50;2.70;;;;;;;12.44;36.64;100985.88;4232000;28;20231;-74
2022/05/19 04:57:53;;;;;;;8.03;2.40;;;;;;;12.52;36.26;100982.47;4247666;28;22923;-73
2022/05/19 05:00:20;;;;;;;9.17;2.63;;;;;;;12.55;36.65;100988.38;4249430;28;21928;-73
2022/05/19 05:02:47;;;;;;;8.87;2.80;;;;;;;12.69;36.85;100984.41;4247991;28;20228;-73
2022/05/19 05:05:14;;;;;;;12.80;2.90;;;;;;;12.88;36.23;100994.19;4239313;28;20310;-74
2022/05/19 05:07:40;;;;;;;8.70;2.70;;;;;;;12.98;35.96;101000.31;4227904;28;20268;-73
2022/05/19 05:10:07;;;;;;;16.43;2.70;;;;;;;13.09;35.68;100997.47;4237848;28;20281;-72
2022/05/19 05:12:34;;;;;;;9.77;2.50;;;;;;;13.21;35.30;100998.13;4224516;28;25492;-74
2022/05/19 05:15:00;;;;;;;15.53;2.40;;;;;;;13.27;34.17;100994.00;4239172;28;20918;-72
2022/05/19 05:17:27;;;;;;;7.67;2.30;;;;;;;13.35;34.99;100990.63;4238298;28;21158;-72
2022/05/19 05:19:53;;;;;;;8.43;2.30;;;;;;;13.44;35.00;100990.56;4248245;28;20227;-74
2022/05/19 05:22:21;;;;;;;15.77;2.57;;;;;;;13.60;34.75;100991.72;4243364;28;20236;-74
2022/05/19 05:24:47;;;;;;;10.53;2.33;;;;;;;13.65;34.76;100984.06;4217714;28;20388;-74
2022/05/19 05:27:14;;;;;;;8.47;2.30;;;;;;;13.90;34.15;100993.19;4235445;28;24723;-72
2022/05/19 05:29:40;;;;;;;11.07;2.33;;;;;;;14.11;34.06;100995.56;4243182;28;20256;-73
2022/05/19 05:32:07;;;;;;;10.73;2.03;;;;;;;14.41;33.12;100998.81;4242115;28;20296;-72
2022/05/19 05:34:34;;;;;;;9.30;2.07;;;;;;;14.56;32.73;100997.25;4240533;28;20240;-68
2022/05/19 05:37:03;;;;;;;17.07;2.10;;;;;;;15.37;31.39;101009.41;4241706;28;22798;-70
2022/05/19 05:39:30;;;;;;;15.50;2.37;;;;;;;16.04;29.63;101021.00;4262470;28;25257;-71
2022/05/19 05:42:01;;;;;;;19.33;2.17;;;;;;;16.81;28.33;101028.72;4248290;28;20226;-69
2022/05/19 05:44:28;;;;;;;11.17;1.97;;;;;;;17.83;27.13;101031.50;4244773;28;21236;-71
2022/05/19 05:46:54;;;;;;;10.90;1.83;;;;;;;18.84;25.80;101032.22;4232579;28;21774;-70
2022/05/19 05:49:21;;;;;;;10.17;2.17;;;;;;;19.88;24.22;101042.09;4237145;28;22944;-71
2022/05/19 05:51:48;;;;;;;11.60;2.60;;;;;;;19.72;24.98;101043.19;4224934;28;20401;-74
2022/05/19 05:54:15;;;;;;;8.37;1.80;;;;;;;20.54;23.49;101048.13;4225629;28;20551;-71
2022/05/19 05:56:42;;;;;;;4.80;1.50;;;;;;;21.10;22.35;101057.31;4252582;28;20254;-69
2022/05/19 05:59:08;;;;;;;10.20;2.10;;;;;;;22.23;21.23;101058.59;4236687;28;20256;-69
2022/05/19 06:01:35;;;;;;;10.37;2.03;;;;;;;21.68;21.57;101052.38;4244841;28;21707;-70
2022/05/19 06:04:02;;;;;;;11.13;1.97;;;;;;;21.40;21.22;101047.06;4240224;28;20329;-69
2022/05/19 06:06:29;;;;;;;10.17;2.00;;;;;;;22.05;20.66;101063.75;4251914;28;21890;-70
2022/05/19 06:08:56;;;;;;;4.77;1.80;;;;;;;23.49;18.26;101065.78;4239720;28;20238;-68
2022/05/19 06:11:29;;;;;;;5.37;1.80;;;;;;;23.57;17.58;101068.25;4268037;28;20235;-70
2022/05/19 06:13:56;;;;;;;12.83;2.27;;;;;;;24.21;16.96;101079.25;4245082;28;20280;-69
2022/05/19 06:16:23;;;;;;;4.22;1.48;;;;;;;25.24;15.54;101077.97;4248521;28;20681;-70
2022/05/19 06:18:50;;;;;;;11.33;2.00;;;;;;;25.34;15.56;101077.44;4249730;28;20238;-70
2022/05/19 06:21:16;;;;;;;13.47;1.77;;;;;;;26.04;15.06;101077.00;4245111;28;22239;-68
2022/05/19 06:23:43;;;;;;;13.33;2.07;;;;;;;26.67;14.45;101075.63;4235556;28;22589;-72
2022/05/19 06:26:10;;;;;;;6.60;2.30;;;;;;;25.74;15.02;101071.50;4243870;28;20244;-72
2022/05/19 06:28:36;;;;;;;16.25;2.42;;;;;;;26.72;14.25;101078.47;4246685;28;20332;-74
2022/05/19 06:31:03;;;;;;;9.00;2.00;;;;;;;26.32;14.37;101076.34;4260735;28;20574;-72
2022/05/19 06:33:32;;;;;;;8.75;1.70;;;;;;;26.40;13.83;101070.53;4254707;28;20260;-74
2022/05/19 06:35:58;;;;;;;6.18;1.80;;;;;;;26.27;13.94;101074.34;4243850;28;23690;-74
2022/05/19 06:38:25;;;;;;;9.38;2.08;;;;;;;26.77;13.78;101075.84;4235815;28;22836;-73
2022/05/19 06:40:51;;;;;;;7.60;1.50;;;;;;;27.28;12.97;101082.50;4245993;28;20231;-73
2022/05/19 06:43:24;;;;;;;10.83;2.20;;;;;;;26.72;13.94;101067.53;4242493;28;20340;-72
2022/05/19 06:45:51;;;;;;;8.32;1.73;;;;;;;26.87;13.48;101075.25;4248055;28;21578;-74
2022/05/19 06:48:18;;;;;;;10.52;1.75;;;;;;;26.61;14.04;101076.53;4237533;28;20230;-71
2022/05/19 06:50:44;;;;;;;13.50;2.30;;;;;;;26.29;14.54;101079.53;4240931;28;20832;-71
2022/05/19 06:53:12;;;;;;;7.65;1.55;;;;;;;25.10;14.97;101060.06;4260451;28;22262;-74
2022/05/19 06:55:39;;;;;;;4.23;1.40;;;;;;;26.24;14.04;101079.41;4248556;28;20312;-72
2022/05/19 06:58:06;;;;;;;8.00;1.67;;;;;;;27.14;13.20;101075.59;4255946;28;20333;-74
2022/05/19 07:00:34;;;;;;;19.35;3.55;;;;;;;27.35;13.30;101072.25;4250386;28;20223;-76
2022/05/19 07:03:01;;;;;;;12.75;2.00;;;;;;;28.31;11.86;101074.41;4267959;28;20250;-72
2022/05/19 07:05:31;;;;;;;10.73;1.55;;;;;;;28.82;11.70;101080.72;4252915;28;20296;-70
2022/05/19 07:07:58;;;;;;;8.90;1.98;;;;;;;29.77;11.28;101069.66;4247630;28;22526;-71
2022/05/19 07:10:26;;;;;;;4.35;1.60;;;;;;;29.45;11.14;101062.16;4225734;28;20261;-71
2022/05/19 07:12:54;;;;;;;8.30;1.60;;;;;;;28.66;11.36;101065.16;4263967;28;20238;-70
2022/05/19 07:15:22;;;;;;;9.60;1.55;;;;;;;28.37;11.03;101061.63;4240007;28;21673;-76
2022/05/19 07:17:49;;;;;;;11.82;1.80;;;;;;;28.14;10.68;101063.44;4243464;28;20243;-76
2022/05/19 07:23:02;;;;;;;10.45;1.70;;;;;;;27.04;11.63;101053.50;4262791;28;21385;-74
2022/05/19 07:25:29;;;;;;;6.63;1.50;;;;;;;27.25;11.94;101043.88;4258080;28;22101;-71
2022/05/19 07:27:57;;;;;;;4.50;1.05;;;;;;;25.96;12.80;101037.22;4259571;28;20239;-69
2022/05/19 07:30:24;;;;;;;9.27;1.70;;;;;;;25.95;13.12;101034.75;4240883;28;20302;-69
2022/05/19 07:32:53;;;;;;;8.30;1.40;;;;;;;25.17;13.57;101033.56;4241543;28;20410;-71
2022/05/19 07:35:19;;;;;;;8.67;1.30;;;;;;;24.91;13.84;101029.25;4283878;28;20232;-72
2022/05/19 07:37:46;;;;;;;8.32;1.65;;;;;;;24.78;13.34;101031.06;4270466;28;20353;-71
2022/05/19 07:40:13;;;;;;;13.40;1.80;;;;;;;24.44;13.99;101027.81;4239282;28;21841;-71
2022/05/19 07:42:40;;;;;;;13.35;1.98;;;;;;;24.09;14.34;101024.72;4259193;28;20755;-73
2022/05/19 07:45:07;;;;;;;4.27;1.20;;;;;;;23.10;15.24;101021.41;4257399;28;21264;-74
2022/05/19 07:47:34;;;;;;;4.57;1.10;;;;;;;22.37;16.89;101004.38;4220720;28;20243;-71
2022/05/19 07:50:02;;;;;;;3.95;1.20;;;;;;;22.81;16.27;101000.16;4240130;28;20235;-73
2022/05/19 07:52:33;;;;;;;4.20;0.90;;;;;;;23.70;14.17;101006.75;4257976;28;22437;-72
2022/05/19 07:55:00;;;;;;;3.40;1.00;;;;;;;23.54;13.83;101017.06;4230230;28;20682;-73
2022/05/19 07:57:27;;;;;;;12.63;1.20;;;;;;;23.73;14.19;101011.75;4243284;28;21290;-72
2022/05/19 07:59:54;;;;;;;11.37;1.60;;;;;;;23.67;14.67;101007.16;4253721;28;20704;-71
2022/05/19 08:02:22;;;;;;;2.67;0.93;;;;;;;23.16;14.57;101009.69;4259914;28;20228;-74
2022/05/19 08:04:48;;;;;;;7.13;1.00;;;;;;;23.05;15.63;101007.63;4256436;28;20300;-69
2022/05/19 08:07:15;;;;;;;4.13;1.33;;;;;;;23.16;14.69;101004.25;4259618;28;20238;-76
2022/05/19 08:18:15;;;;;;;3.07;1.30;;;;;;;23.48;14.95;101004.31;4252343;28;21160;-69
2022/05/19 08:20:48;;;;;;;4.37;1.17;;;;;;;22.87;15.08;100992.00;4252876;28;20227;-70
2022/05/19 08:23:21;;;;;;;5.40;1.07;;;;;;;22.31;15.60;100993.34;4272785;28;20262;-69
2022/05/19 08:25:48;;;;;;;3.50;1.17;;;;;;;22.09;16.37;100995.38;4262935;28;20231;-69
2022/05/19 08:28:16;;;;;;;5.93;1.10;;;;;;;22.24;16.33;100992.50;4254268;28;20235;-71
2022/05/19 08:30:47;;;;;;;2.87;1.20;;;;;;;22.88;15.84;100995.56;4292828;28;23122;-74
2022/05/19 08:33:16;;;;;;;3.97;1.10;;;;;;;22.45;16.03;100990.59;4246685;28;22563;-68
2022/05/19 08:35:43;;;;;;;5.33;1.13;;;;;;;22.40;15.63;100988.50;4234426;28;20298;-69
2022/05/19 08:38:09;;;;;;;4.63;1.30;;;;;;;22.48;14.88;100982.88;4258318;28;21666;-73
2022/05/19 08:40:45;;;;;;;10.17;1.30;;;;;;;22.87;15.08;100991.16;4247486;28;20635;-61
2022/05/19 08:43:14;;;;;;;5.47;1.30;;;;;;;21.99;16.46;100983.28;4233563;28;20222;-54
2022/05/19 08:45:49;;;;;;;7.70;1.10;;;;;;;22.25;16.11;100986.03;4221358;28;20227;-64
2022/05/19 08:48:24;;;;;;;3.47;1.20;;;;;;;22.58;16.74;100974.31;4245935;28;21082;-51
2022/05/19 08:50:54;;;;;;;6.63;1.30;;;;;;;21.76;16.08;100972.81;4255994;28;20231;-69
2022/05/19 08:53:24;;;;;;;7.00;1.30;;;;;;;21.73;17.44;100974.06;4256002;28;22947;-70
2022/05/19 08:55:54;;;;;;;8.20;1.43;;;;;;;22.11;15.99;100971.59;4248721;28;21811;-68
2022/05/19 08:59:03;;;;;;;5.33;1.30;;;;;;;22.18;15.52;100971.59;4256777;28;20234;-71
2022/05/19 09:01:53;;;;;;;8.67;1.17;;;;;;;21.58;16.42;100970.69;4270681;28;20476;-69
2022/05/19 09:04:34;;;;;;;4.20;1.30;;;;;;;21.87;16.13;100964.91;4254708;28;20247;-69
2022/05/19 09:07:59;;;;;;;2.63;1.23;;;;;;;21.97;16.97;100955.53;4241134;28;20242;-70
2022/05/19 09:10:54;;;;;;;9.73;1.27;;;;;;;22.21;15.73;100957.66;4245881;28;20230;-68
2022/05/19 09:13:36;;;;;;;9.13;1.50;;;;;;;22.38;16.11;100965.38;4242738;28;22296;-67
2022/05/19 09:16:24;;;;;;;2.57;0.90;;;;;;;21.43;16.95;100963.56;4251118;28;20228;-67
2022/05/19 09:19:14;;;;;;;4.13;1.23;;;;;;;21.49;17.40;100967.31;4220533;28;20237;-69
2022/05/19 09:21:42;;;;;;;6.13;1.10;;;;;;;21.64;16.76;100950.91;4239990;28;20235;-69
2022/05/19 09:24:11;;;;;;;4.03;1.20;;;;;;;21.83;16.46;100958.22;4230045;28;20231;-70
2022/05/19 09:26:52;;;;;;;7.60;1.40;;;;;;;21.52;16.94;100949.81;4232500;28;22069;-70
2022/05/19 09:29:29;;;;;;;8.73;1.43;;;;;;;21.33;18.05;100956.81;4257668;28;20412;-67
2022/05/19 09:32:14;;;;;;;6.83;1.50;;;;;;;21.36;17.07;100949.13;4246218;28;20235;-70
2022/05/19 09:34:47;;;;;;;7.63;1.27;;;;;;;21.11;17.47;100953.41;4235912;28;20227;-70
2022/05/19 09:37:43;;;;;;;6.20;1.20;;;;;;;21.32;18.04;100944.34;4238096;28;20234;-69
2022/05/19 09:40:12;;;;;;;7.20;1.10;;;;;;;21.22;16.63;100939.31;4230798;28;20235;-68
2022/05/19 09:43:22;;;;;;;7.43;1.50;;;;;;;21.11;17.93;100937.19;4239231;28;20231;-67
2022/05/19 09:45:53;;;;;;;4.73;1.10;;;;;;;21.45;17.42;100939.81;4239704;28;20238;-68
2022/05/19 09:48:27;;;;;;;7.53;1.20;;;;;;;21.40;18.28;100930.63;4245669;28;20243;-65
2022/05/19 09:51:00;;;;;;;7.53;1.50;;;;;;;21.61;18.95;100926.94;4239267;28;20230;-66
2022/05/19 09:53:29;;;;;;;5.57;1.20;;;;;;;21.36;17.40;100929.38;4251019;28;20735;-68
2022/05/19 09:55:58;;;;;;;9.63;1.23;;;;;;;21.58;16.55;100927.34;4234375;28;22708;-67
2022/05/19 09:58:26;;;;;;;4.10;1.27;;;;;;;21.52;17.80;100925.44;4248912;28;20233;-66
2022/05/19 10:00:54;;;;;;;6.13;1.87;;;;;;;21.11;17.18;100910.13;4243613;28;20268;-67
2022/05/19 10:03:32;;;;;;;7.97;1.70;;;;;;;21.26;18.42;100918.94;4230647;28;20233;-67
2022/05/19 10:06:22;;;;;;;3.38;1.10;;;;;;;21.75;16.74;100911.53;4217493;28;21427;-67
2022/05/19 10:08:59;;;;;;;9.93;1.50;;;;;;;21.79;16.92;100908.19;4242636;28;20438;-66
2022/05/19 10:11:28;;;;;;;6.67;1.70;;;;;;;21.78;18.03;100901.13;4237678;28;21955;-67
2022/05/19 10:14:08;;;;;;;6.27;1.60;;;;;;;21.60;18.08;100892.78;4221387;28;20234;-67
2022/05/19 10:16:51;;;;;;;4.27;1.43;;;;;;;21.86;17.86;100903.63;4231466;28;20221;-66
2022/05/19 10:19:49;;;;;;;8.37;1.50;;;;;;;22.08;16.83;100900.72;4228877;28;22152;-66
2022/05/19 10:22:42;;;;;;;4.17;1.40;;;;;;;21.88;18.26;100879.88;4239040;28;20242;-65
2022/05/19 10:25:21;;;;;;;4.87;1.30;;;;;;;21.89;17.62;100884.25;4228940;28;20242;-67
2022/05/19 10:31:05;;;;;;;9.17;1.60;;;;;;;22.17;17.15;100872.31;4243411;28;20229;-67
2022/05/19 10:33:47;;;;;;;14.63;2.47;;;;;;;22.36;16.24;100869.81;4239003;28;21381;-66
2022/05/19 10:36:38;;;;;;;4.73;1.57;;;;;;;22.37;15.29;100872.34;4221235;28;21765;-67
2022/05/19 10:39:35;;;;;;;7.80;1.70;;;;;;;22.05;17.15;100857.75;4237379;28;21275;-67
2022/05/19 10:42:15;;;;;;;11.00;2.07;;;;;;;22.20;17.21;100865.69;4265409;28;23094;-68
2022/05/19 10:45:20;;;;;;;14.50;2.00;;;;;;;22.40;16.15;100852.09;4216327;28;22037;-67
2022/05/19 10:48:01;;;;;;;12.80;2.30;;;;;;;22.62;15.66;100860.81;4236167;28;20295;-67
2022/05/19 10:50:35;;;;;;;6.23;1.80;;;;;;;22.47;17.13;100861.03;4242306;28;21823;-67
2022/05/19 10:53:07;;;;;;;9.97;1.70;;;;;;;22.33;16.65;100844.78;4261913;28;20310;-67
2022/05/19 10:55:59;;;;;;;11.00;2.40;;;;;;;22.63;15.65;100852.44;4244321;28;22356;-69
2022/05/19 10:58:57;;;;;;;21.17;2.40;;;;;;;22.69;15.55;100848.88;4242895;28;21226;-71
2022/05/19 11:02:02;;;;;;;8.63;2.00;;;;;;;22.76;15.41;100844.25;4238451;28;20230;-68
2022/05/19 11:04:45;;;;;;;10.80;2.20;;;;;;;22.77;15.35;100839.66;4248694;28;20234;-69
2022/05/19 11:07:22;;;;;;;11.00;2.20;;;;;;;22.88;14.35;100840.88;4240349;28;20679;-71
2022/05/19 11:09:58;;;;;;;6.60;1.97;;;;;;;22.89;13.86;100840.63;4237107;28;20237;-68
2022/05/19 11:12:37;;;;;;;14.00;2.00;;;;;;;22.81;14.70;100831.94;4253154;28;20231;-71
2022/05/19 11:15:51;;;;;;;6.37;1.63;;;;;;;22.94;14.83;100826.41;4249347;28;20246;-70
2022/05/19 11:18:33;;;;;;;16.40;1.87;;;;;;;23.01;14.95;100820.97;4283389;28;25440;-69
2022/05/19 11:21:09;;;;;;;8.00;1.87;;;;;;;23.13;14.68;100813.78;4259493;28;20221;-76
2022/05/19 11:24:03;;;;;;;7.67;1.70;;;;;;;23.16;15.74;100806.06;4248961;28;22254;-71
2022/05/19 11:26:38;;;;;;;6.23;1.70;;;;;;;23.35;16.13;100806.16;4275333;28;20234;-69
2022/05/19 11:29:14;;;;;;;13.30;2.03;;;;;;;23.35;16.03;100798.00;4265944;28;21860;-68
2022/05/19 11:32:05;;;;;;;6.00;1.73;;;;;;;23.34;15.23;100799.88;4256554;28;21480;-71
2022/05/19 11:34:42;;;;;;;6.07;1.80;;;;;;;23.31;15.25;100786.72;4240364;28;20244;-74
2022/05/19 11:37:26;;;;;;;8.67;2.07;;;;;;;23.27;14.49;100788.25;4249150;28;20361;-70
2022/05/19 11:40:13;;;;;;;8.75;2.00;;;;;;;23.07;15.15;100793.78;4232227;28;21782;-71
2022/05/19 11:42:45;;;;;;;9.30;2.10;;;;;;;22.94;15.90;100782.97;4242716;28;20237;-73
2022/05/19 11:45:29;;;;;;;7.43;1.80;;;;;;;23.18;15.79;100782.25;4247100;28;20237;-71
2022/05/19 11:57:29;;;;;;;8.32;1.83;;;;;;;23.95;15.28;100754.00;4271075;28;20321;-69
2022/05/19 11:59:58;;;;;;;13.30;1.80;;;;;;;23.66;15.66;100760.97;4244163;28;20304;-72
2022/05/19 12:02:28;;;;;;;12.37;2.57;;;;;;;23.88;15.06;100764.97;4272291;28;25419;-70
2022/05/19 12:05:09;;;;;;;6.30;1.90;;;;;;;24.09;13.79;100760.97;4306872;28;21153;-77
2022/05/19 12:08:00;;;;;;;6.23;1.90;;;;;;;23.91;14.46;100752.81;4276976;28;23486;-72
2022/05/19 12:10:41;;;;;;;9.80;1.90;;;;;;;24.23;14.64;100750.75;4270404;28;20409;-71
2022/05/19 12:13:09;;;;;;;6.65;1.83;;;;;;;24.20;14.26;100748.50;4287179;28;20225;-72